Time;durP1;ratioP1;P1;durP2;ratioP2;P2;SDS_P1;SDS_P2;PMS_P1;PMS_P2;Temp;Humidity;BMP_temperature;BMP_pressure;BME280_temperature;BME280_humidity;BME280_pressure;Samples;Min_cycle;Max_cycle;Signal;HPM_P1;HPM_P2
2022/06/01 00:01:33;;;;;;;;;2.50;2.50;;;;;15.30;46.60;100739.41;5015358;28;46011;-77
2022/06/01 00:03:58;;;;;;;;;2.50;2.00;;;;;15.27;46.70;100736.88;5006415;28;45386;-77
2022/06/01 00:06:23;;;;;;;;;2.00;2.00;;;;;15.26;46.36;100736.00;5004956;28;45555;-77
2022/06/01 00:08:49;;;;;;;;;3.00;3.00;;;;;15.15;46.93;100716.88;4999312;28;45749;-78
2022/06/01 00:11:15;;;;;;;;;1.75;1.75;;;;;15.21;46.73;100739.75;4998489;28;45639;-76
2022/06/01 00:13:41;;;;;;;;;2.75;2.75;;;;;15.13;47.18;100734.72;5012515;28;45538;-76
2022/06/01 00:16:07;;;;;;;;;2.00;2.00;;;;;15.12;46.88;100738.28;5016813;28;45295;-77
2022/06/01 00:18:34;;;;;;;;;2.00;2.00;;;;;15.13;47.33;100737.38;5020045;28;45430;-79
2022/06/01 00:20:59;;;;;;;;;1.00;1.00;;;;;15.08;47.05;100736.69;5010319;28;46322;-76
2022/06/01 00:23:25;;;;;;;;;0.25;0.25;;;;;15.06;47.06;100742.06;5003139;28;45549;-77
2022/06/01 00:25:51;;;;;;;;;2.25;2.25;;;;;15.05;47.19;100744.78;5016515;28;45379;-76
2022/06/01 00:28:16;;;;;;;;;2.00;2.00;;;;;14.99;47.53;100737.03;5016779;28;45455;-78
2022/06/01 00:30:41;;;;;;;;;1.00;1.00;;;;;14.99;47.49;100745.88;5016155;28;45930;-76
2022/06/01 00:33:07;;;;;;;;;2.50;2.50;;;;;14.95;47.87;100738.91;5020465;28;45582;-76
2022/06/01 00:35:33;;;;;;;;;3.25;3.25;;;;;14.93;48.18;100733.63;5000457;28;45504;-76
2022/06/01 00:37:58;;;;;;;;;3.00;3.00;;;;;14.89;48.15;100733.81;5002821;28;45605;-76
2022/06/01 00:40:26;;;;;;;;;2.00;1.75;;;;;14.89;47.96;100740.00;4998677;28;45599;-76
2022/06/01 00:42:54;;;;;;;;;2.00;2.00;;;;;14.88;47.93;100737.41;5004041;28;45828;-76
2022/06/01 00:45:23;;;;;;;;;3.25;3.25;;;;;14.85;48.30;100738.38;5000956;28;45323;-75
2022/06/01 00:47:49;;;;;;;;;2.50;2.00;;;;;14.82;48.01;100737.59;4995641;28;45483;-76
2022/06/01 00:50:23;;;;;;;;;3.00;2.00;;;;;14.80;48.43;100732.31;4995961;28;45483;-76
2022/06/01 00:52:57;;;;;;;;;3.00;3.00;;;;;14.80;48.51;100742.09;5002847;28;45558;-78
2022/06/01 00:55:28;;;;;;;;;4.00;3.00;;;;;14.78;48.58;100735.97;5022213;28;45574;-77
2022/06/01 00:58:01;;;;;;;;;2.25;2.25;;;;;14.74;48.17;100737.88;5017635;28;45440;-78
2022/06/01 01:00:32;;;;;;;;;2.50;2.50;;;;;14.68;48.57;100731.00;5016813;28;45996;-77
2022/06/01 01:03:00;;;;;;;;;2.25;2.25;;;;;14.70;48.56;100737.09;5009392;28;45502;-79
2022/06/01 01:05:27;;;;;;;;;2.00;2.00;;;;;14.68;48.96;100740.72;5012765;28;45435;-78
2022/06/01 01:07:53;;;;;;;;;4.00;4.00;;;;;14.67;49.31;100739.88;5021308;28;45358;-79
2022/06/01 01:10:19;;;;;;;;;3.00;3.00;;;;;14.66;48.91;100746.09;5016173;28;45356;-78
2022/06/01 01:13:04;;;;;;;;;3.75;3.75;;;;;14.63;48.64;100746.22;5013757;28;45392;-79
2022/06/01 01:15:58;;;;;;;;;2.75;2.75;;;;;14.60;49.47;100737.44;5008825;28;45427;-78
2022/06/01 01:18:39;;;;;;;;;4.50;3.00;;;;;14.54;48.70;100739.38;5015174;28;45408;-76
2022/06/01 01:21:19;;;;;;;;;2.50;2.50;;;;;14.55;49.36;100740.28;5015321;28;46421;-76
2022/06/01 01:23:50;;;;;;;;;6.00;6.00;;;;;14.51;48.81;100731.50;5015382;28;45502;-76
2022/06/01 01:26:15;;;;;;;;;4.25;3.00;;;;;14.48;49.48;100738.72;5014306;28;45373;-76
2022/06/01 01:28:42;;;;;;;;;3.00;3.00;;;;;14.47;49.28;100731.66;5012073;28;45662;-78
2022/06/01 01:31:12;;;;;;;;;3.50;3.50;;;;;14.43;49.66;100736.22;4996779;28;46180;-78
2022/06/01 01:33:38;;;;;;;;;5.50;3.00;;;;;14.41;50.10;100738.06;5012697;28;45422;-78
2022/06/01 01:36:09;;;;;;;;;2.00;2.00;;;;;14.38;49.57;100736.38;5018152;28;45400;-78
2022/06/01 01:38:53;;;;;;;;;6.00;3.25;;;;;14.37;49.48;100734.63;5017895;28;45332;-77
2022/06/01 01:41:31;;;;;;;;;3.75;3.75;;;;;14.33;49.89;100735.69;5017807;28;46336;-78
2022/06/01 01:44:01;;;;;;;;;2.75;2.75;;;;;14.34;49.42;100734.72;5030672;28;45521;-77
2022/06/01 01:46:28;;;;;;;;;2.50;2.50;;;;;14.32;49.84;100738.38;5029260;28;45455;-77
2022/06/01 01:48:54;;;;;;;;;2.00;2.00;;;;;14.30;49.77;100741.09;4995517;28;45535;-75
2022/06/01 01:51:21;;;;;;;;;3.00;3.00;;;;;14.29;49.97;100738.50;4995464;28;46474;-77
2022/06/01 01:53:47;;;;;;;;;2.00;2.00;;;;;14.25;49.49;100735.03;5013726;28;45332;-76
2022/06/01 01:57:01;;;;;;;;;2.00;2.00;;;;;14.26;49.57;100741.25;5014722;28;45431;-76
2022/06/01 02:00:25;;;;;;;;;2.75;1.75;;;;;14.24;49.94;100735.94;5013475;28;45500;-76
2022/06/01 02:02:58;;;;;;;;;1.00;1.00;;;;;14.21;50.45;100731.63;4974737;28;46312;-77
2022/06/01 02:08:11;;;;;;;;;2.75;2.25;;;;;14.18;50.33;100725.53;4975159;28;45547;-76
2022/06/01 02:13:22;;;;;;;;;2.00;2.00;;;;;14.08;50.45;100702.84;4976858;28;45720;-76
2022/06/01 02:15:49;;;;;;;;;2.00;1.50;;;;;14.11;50.53;100716.03;4992042;28;45456;-75
2022/06/01 02:18:24;;;;;;;;;2.00;2.00;;;;;14.08;50.70;100717.00;4992031;28;45474;-76
2022/06/01 02:21:02;;;;;;;;;3.00;2.75;;;;;14.06;50.59;100710.88;4970001;28;45483;-76
2022/06/01 02:23:31;;;;;;;;;4.75;2.50;;;;;14.04;50.57;100707.38;4987998;28;45666;-77
2022/06/01 02:25:58;;;;;;;;;2.00;2.00;;;;;14.03;50.95;100711.81;4991677;28;45540;-75
2022/06/01 02:28:24;;;;;;;;;5.50;1.75;;;;;14.06;50.62;100712.63;4994082;28;45452;-79
2022/06/01 02:30:51;;;;;;;;;3.00;2.50;;;;;14.04;50.36;100707.38;4994189;28;46249;-79
2022/06/01 02:33:22;;;;;;;;;1.00;1.00;;;;;14.03;50.93;100709.16;4999817;28;46198;-79
2022/06/01 02:35:53;;;;;;;;;1.50;1.50;;;;;13.98;51.14;100708.47;5003598;28;45401;-78
2022/06/01 02:38:25;;;;;;;;;2.00;2.00;;;;;13.97;50.68;100704.06;5014908;28;45326;-78
2022/06/01 02:40:50;;;;;;;;;4.25;3.00;;;;;13.98;50.72;100700.47;5014759;28;45451;-78
2022/06/01 02:43:16;;;;;;;;;1.25;1.25;;;;;13.96;50.71;100704.97;5010326;28;46253;-79
2022/06/01 02:45:42;;;;;;;;;1.75;1.75;;;;;13.91;50.91;100696.28;5014871;28;45331;-78
2022/06/01 02:48:08;;;;;;;;;1.25;1.25;;;;;13.93;50.94;100705.06;5013923;28;45434;-78
2022/06/01 02:50:35;;;;;;;;;1.75;1.00;;;;;13.92;51.50;100703.31;5008509;28;45511;-78
2022/06/01 02:53:02;;;;;;;;;2.75;2.00;;;;;13.89;51.54;100698.09;5005596;28;46276;-80
2022/06/01 02:55:30;;;;;;;;;1.75;1.75;;;;;13.88;51.25;100701.69;5028922;28;45387;-75
2022/06/01 02:57:56;;;;;;;;;2.00;2.00;;;;;13.89;51.26;100703.41;5036523;28;45376;-75
2022/06/01 03:00:26;;;;;;;;;3.00;3.00;;;;;13.88;51.99;100704.34;5038647;28;45390;-76
2022/06/01 03:02:55;;;;;;;;;2.00;2.00;;;;;13.85;51.94;100696.47;5018077;28;45771;-77
2022/06/01 03:05:25;;;;;;;;;3.00;2.00;;;;;13.81;51.90;100689.50;5007309;28;45378;-76
2022/06/01 03:07:52;;;;;;;;;2.00;2.00;;;;;13.76;52.34;100686.16;4996002;28;45482;-77
2022/06/01 03:10:17;;;;;;;;;3.25;3.25;;;;;13.73;52.08;100687.09;4994627;28;45668;-77
2022/06/01 03:12:43;;;;;;;;;2.25;2.00;;;;;13.77;51.75;100695.81;4994458;28;45528;-77
2022/06/01 03:15:11;;;;;;;;;2.00;2.00;;;;;13.76;51.99;100696.75;4994412;28;45403;-77
2022/06/01 03:17:37;;;;;;;;;2.00;2.00;;;;;13.74;52.38;100698.59;5010040;28;45479;-77
2022/06/01 03:20:08;;;;;;;;;4.00;2.50;;;;;13.70;51.92;100696.97;5014011;28;45312;-76
2022/06/01 03:22:36;;;;;;;;;3.00;3.00;;;;;13.74;52.13;100711.84;4993044;28;48122;-77
2022/06/01 03:25:03;;;;;;;;;4.75;2.50;;;;;13.72;52.18;100697.78;4994490;28;45498;-78
2022/06/01 03:27:29;;;;;;;;;1.75;1.75;;;;;13.68;52.54;100700.53;4993571;28;45495;-78
2022/06/01 03:29:55;;;;;;;;;3.50;3.50;;;;;13.66;53.24;100707.69;4995611;28;45498;-78
2022/06/01 03:32:21;;;;;;;;;2.75;2.75;;;;;13.62;53.45;100700.72;4996085;28;45415;-78
2022/06/01 03:34:47;;;;;;;;;6.00;4.00;;;;;13.63;53.59;100713.06;5000373;28;45523;-78
2022/06/01 03:37:12;;;;;;;;;3.00;3.00;;;;;13.61;54.21;100714.91;4999131;28;45310;-78
2022/06/01 03:39:38;;;;;;;;;2.75;2.25;;;;;13.56;54.59;100711.53;4998819;28;45448;-80
2022/06/01 03:42:03;;;;;;;;;6.25;4.50;;;;;13.56;54.83;100718.59;4998017;28;46087;-79
2022/06/01 03:47:13;;;;;;;;;2.00;2.00;;;;;13.49;55.03;100720.59;5017719;28;45395;-78
2022/06/01 03:49:38;;;;;;;;;4.00;3.00;;;;;13.46;54.80;100725.97;5017983;28;45371;-79
2022/06/01 03:52:05;;;;;;;;;3.00;3.00;;;;;13.45;55.01;100724.22;5017924;28;46532;-78
2022/06/01 03:54:31;;;;;;;;;2.00;1.75;;;;;13.47;54.72;100730.38;5017405;28;45469;-78
2022/06/01 03:56:56;;;;;;;;;3.25;3.25;;;;;13.44;55.25;100720.72;5018381;28;45663;-78
2022/06/01 03:59:22;;;;;;;;;6.00;4.00;;;;;13.39;54.83;100719.09;5019825;28;45491;-78
2022/06/01 04:01:47;;;;;;;;;5.50;4.00;;;;;13.39;54.98;100721.75;5036610;28;45495;-79
2022/06/01 04:04:12;;;;;;;;;3.50;3.50;;;;;13.40;54.83;100726.16;5039837;28;45381;-77
2022/06/01 04:06:38;;;;;;;;;6.00;3.25;;;;;13.44;55.04;100728.69;5025173;28;45232;-79
2022/06/01 04:09:03;;;;;;;;;2.25;2.25;;;;;13.48;55.06;100732.09;5016252;28;45589;-79
2022/06/01 04:11:29;;;;;;;;;5.50;5.50;;;;;13.54;54.70;100726.63;5015927;28;46362;-79
2022/06/01 04:13:54;;;;;;;;;3.00;3.00;;;;;13.87;54.08;100723.84;5017476;28;45471;-79
2022/06/01 04:16:20;;;;;;;;;6.00;3.50;;;;;14.26;53.28;100728.81;5027855;28;45420;-78
2022/06/01 04:18:46;;;;;;;;;3.50;3.50;;;;;14.69;52.50;100727.38;5037489;28;45527;-79
2022/06/01 04:21:13;;;;;;;;;3.00;3.00;;;;;15.17;51.42;100730.13;5037297;28;45453;-78
2022/06/01 04:23:39;;;;;;;;;2.00;2.00;;;;;15.58;50.37;100730.41;5037566;28;45473;-79
2022/06/01 04:26:04;;;;;;;;;2.75;2.75;;;;;15.78;49.87;100725.19;5028343;28;45535;-77
2022/06/01 04:28:29;;;;;;;;;2.00;2.00;;;;;16.23;49.30;100735.84;5017633;28;45415;-77
2022/06/01 04:30:55;;;;;;;;;2.75;2.75;;;;;16.52;48.15;100743.53;5009626;28;46314;-78
2022/06/01 04:33:20;;;;;;;;;3.00;3.00;;;;;16.80;48.05;100749.50;4997992;28;45373;-78
2022/06/01 04:35:46;;;;;;;;;4.00;4.00;;;;;17.26;46.63;100739.47;5004110;28;45331;-79
2022/06/01 04:38:14;;;;;;;;;4.75;3.50;;;;;17.87;45.52;100746.44;5017691;28;45480;-79
2022/06/01 04:40:53;;;;;;;;;3.50;3.00;;;;;18.48;44.35;100747.09;5016625;28;46290;-79
2022/06/01 04:43:20;;;;;;;;;4.25;3.00;;;;;18.75;43.55;100754.66;5017461;28;45523;-77
2022/06/01 04:45:48;;;;;;;;;3.00;3.00;;;;;19.21;42.69;100741.56;5015566;28;45272;-79
2022/06/01 04:48:14;;;;;;;;;3.75;3.00;;;;;19.78;41.40;100740.31;5010377;28;45479;-79
2022/06/01 04:50:42;;;;;;;;;4.50;3.00;;;;;20.35;40.61;100750.50;5017389;28;46121;-78
2022/06/01 04:53:09;;;;;;;;;4.25;4.00;;;;;20.75;39.36;100745.47;4996969;28;45457;-77
2022/06/01 04:55:34;;;;;;;;;4.50;3.00;;;;;21.00;39.08;100752.03;5014412;28;45522;-78
2022/06/01 04:58:00;;;;;;;;;3.25;3.25;;;;;21.02;38.74;100747.47;5020330;28;45414;-78
2022/06/01 05:00:25;;;;;;;;;3.00;2.50;;;;;21.53;37.98;100749.69;5021270;28;45424;-78
2022/06/01 05:02:50;;;;;;;;;6.00;4.00;;;;;22.06;36.88;100749.91;5017729;28;45296;-80
2022/06/01 05:05:16;;;;;;;;;2.75;2.75;;;;;22.67;36.11;100755.75;5017171;28;45370;-77
2022/06/01 05:07:41;;;;;;;;;3.50;3.50;;;;;23.16;35.59;100754.22;5017270;28;45386;-76
2022/06/01 05:10:07;;;;;;;;;4.00;4.00;;;;;23.51;34.51;100758.97;5015532;28;45309;-76
2022/06/01 05:12:32;;;;;;;;;4.00;4.00;;;;;23.97;33.42;100760.19;5015180;28;45431;-78
2022/06/01 05:14:58;;;;;;;;;4.75;4.00;;;;;24.47;33.36;100752.84;5016668;28;45320;-80
2022/06/01 05:17:23;;;;;;;;;4.25;4.25;;;;;24.79;32.26;100758.53;5015671;28;45351;-79
2022/06/01 05:19:48;;;;;;;;;3.75;3.75;;;;;25.11;31.74;100756.97;5017670;28;46146;-78
2022/06/01 05:22:14;;;;;;;;;5.00;5.00;;;;;25.41;30.91;100753.72;5018356;28;45459;-80
2022/06/01 05:24:39;;;;;;;;;6.00;5.75;;;;;25.78;30.45;100756.19;5017565;28;45662;-79
2022/06/01 05:27:05;;;;;;;;;7.00;4.25;;;;;26.18;29.95;100743.94;5020372;28;45515;-79
2022/06/01 05:29:31;;;;;;;;;4.75;4.00;;;;;26.69;29.48;100755.94;5001317;28;45508;-78
2022/06/01 05:31:56;;;;;;;;;3.25;3.25;;;;;27.05;29.24;100745.63;5010475;28;45420;-79
2022/06/01 05:34:22;;;;;;;;;7.00;5.00;;;;;27.39;27.45;100753.56;5016558;28;45490;-79
2022/06/01 05:36:47;;;;;;;;;5.00;5.00;;;;;27.78;27.65;100751.00;5016396;28;45462;-80
2022/06/01 05:39:12;;;;;;;;;4.00;4.00;;;;;28.15;26.99;100747.66;5015386;28;49032;-80
2022/06/01 05:41:38;;;;;;;;;4.50;4.50;;;;;28.60;27.01;100751.72;5015705;28;45430;-79
2022/06/01 05:44:03;;;;;;;;;6.25;4.00;;;;;28.96;26.28;100741.94;5015859;28;45367;-76
2022/06/01 05:46:30;;;;;;;;;3.00;3.00;;;;;29.21;25.99;100743.22;5013140;28;45391;-76
2022/06/01 05:48:56;;;;;;;;;4.00;4.00;;;;;29.55;25.44;100730.91;5014852;28;46076;-78
2022/06/01 05:51:23;;;;;;;;;4.25;3.50;;;;;29.88;24.76;100734.91;5015671;28;45466;-78
2022/06/01 05:53:48;;;;;;;;;3.00;2.00;;;;;30.11;24.22;100734.47;5016428;28;45439;-77
2022/06/01 05:56:13;;;;;;;;;4.25;2.75;;;;;30.30;24.10;100738.91;5010218;28;45678;-79
2022/06/01 05:58:39;;;;;;;;;2.75;2.75;;;;;30.41;24.02;100732.41;5012835;28;45459;-78
2022/06/01 06:01:07;;;;;;;;;3.25;3.25;;;;;30.71;24.19;100741.19;5004341;28;45482;-78
2022/06/01 06:03:34;;;;;;;;;3.25;3.25;;;;;31.01;23.43;100737.19;4995470;28;45377;-77
2022/06/01 06:06:13;;;;;;;;;2.00;2.00;;;;;31.17;22.99;100741.88;4995057;28;45404;-77
2022/06/01 06:08:42;;;;;;;;;3.00;2.00;;;;;31.30;22.47;100741.44;4995035;28;45478;-78
2022/06/01 06:11:08;;;;;;;;;2.75;2.75;;;;;31.32;22.29;100728.47;4994839;28;45388;-78
2022/06/01 06:13:34;;;;;;;;;2.25;2.25;;;;;31.61;22.16;100733.63;5018846;28;45567;-80
2022/06/01 06:16:00;;;;;;;;;3.00;3.00;;;;;31.65;21.76;100740.44;5012142;28;45485;-79
2022/06/01 06:18:25;;;;;;;;;2.50;2.50;;;;;31.82;21.60;100730.41;5016721;28;46209;-79
2022/06/01 06:20:51;;;;;;;;;2.00;2.00;;;;;32.15;21.22;100740.63;5029590;28;45410;-79
2022/06/01 06:23:16;;;;;;;;;2.00;1.25;;;;;32.37;21.04;100729.03;5015842;28;45568;-80
2022/06/01 06:25:42;;;;;;;;;0.25;0.25;;;;;32.56;21.25;100732.47;5021045;28;45483;-79
2022/06/01 06:28:08;;;;;;;;;0.50;0.50;;;;;32.59;21.45;100726.66;5017725;28;45555;-79
2022/06/01 06:30:35;;;;;;;;;2.00;1.00;;;;;32.55;20.98;100736.22;5007038;28;45381;-77
2022/06/01 06:33:01;;;;;;;;;0.00;0.00;;;;;32.78;21.01;100738.28;4999915;28;45609;-80
2022/06/01 06:35:26;;;;;;;;;0.50;0.50;;;;;32.93;20.92;100733.81;5019744;28;45481;-77
2022/06/01 06:37:52;;;;;;;;;1.50;1.50;;;;;32.90;21.02;100732.31;5006836;28;46304;-78
2022/06/01 06:40:17;;;;;;;;;1.25;1.25;;;;;33.06;20.64;100741.50;5026636;28;45601;-77
2022/06/01 06:42:42;;;;;;;;;1.00;1.00;;;;;33.25;19.92;100745.75;5016545;28;45503;-78
2022/06/01 06:45:08;;;;;;;;;0.50;0.50;;;;;33.34;19.75;100752.91;5021364;28;46117;-79
2022/06/01 06:47:34;;;;;;;;;0.25;0.25;;;;;33.01;19.56;100743.88;5035641;28;45426;-80
2022/06/01 06:50:07;;;;;;;;;0.75;0.75;;;;;32.75;19.94;100743.09;5025305;28;45521;-78
2022/06/01 06:52:32;;;;;;;;;1.00;1.00;;;;;33.08;20.37;100744.91;5012208;28;45457;-80
2022/06/01 06:54:58;;;;;;;;;0.00;0.00;;;;;33.46;19.68;100756.13;5024028;28;45370;-80
2022/06/01 06:57:23;;;;;;;;;0.00;0.00;;;;;33.65;20.16;100746.66;5015289;28;46584;-80
2022/06/01 06:59:49;;;;;;;;;0.00;0.00;;;;;33.77;19.22;100758.09;5021823;28;45449;-81
2022/06/01 07:02:16;;;;;;;;;2.00;0.50;;;;;33.71;19.26;100756.91;5008285;28;45431;-79
2022/06/01 07:04:42;;;;;;;;;0.25;0.25;;;;;33.62;20.17;100758.81;5026933;28;45312;-79
2022/06/01 07:07:07;;;;;;;;;1.00;0.00;;;;;33.86;18.98;100758.91;5010770;28;45582;-79
2022/06/01 07:09:32;;;;;;;;;0.00;0.00;;;;;34.06;19.22;100756.56;5006939;28;45509;-79
2022/06/01 07:11:58;;;;;;;;;1.25;1.25;;;;;34.19;18.88;100756.81;5024122;28;45353;-79
2022/06/01 07:14:23;;;;;;;;;0.50;0.50;;;;;34.36;19.00;100763.06;5012426;28;45335;-80
2022/06/01 07:16:49;;;;;;;;;1.00;1.00;;;;;34.45;19.25;100764.75;5028439;28;46110;-80
2022/06/01 07:19:14;;;;;;;;;0.00;0.00;;;;;34.28;18.45;100755.75;5027199;28;45434;-81
2022/06/01 07:21:41;;;;;;;;;1.75;1.75;;;;;34.42;18.67;100761.50;5024299;28;45515;-81
2022/06/01 07:24:07;;;;;;;;;0.00;0.00;;;;;34.29;18.95;100767.59;5029529;28;45587;-80
2022/06/01 07:26:40;;;;;;;;;2.25;0.25;;;;;34.29;19.31;100767.59;5021146;28;45438;-80
2022/06/01 07:29:06;;;;;;;;;0.00;0.00;;;;;34.32;19.25;100762.59;5031647;28;45501;-79
2022/06/01 07:31:32;;;;;;;;;1.50;0.50;;;;;34.48;18.99;100758.91;5021191;28;45430;-80
2022/06/01 07:34:00;;;;;;;;;0.25;0.25;;;;;34.24;18.71;100765.38;5022398;28;45282;-79
2022/06/01 07:36:27;;;;;;;;;1.75;1.75;;;;;34.25;18.67;100771.72;5021673;28;45575;-81
2022/06/01 07:44:49;;;;;;;;;0.75;0.50;;;;;34.17;18.12;100775.34;5038152;28;45335;-84
2022/06/01 07:47:16;;;;;;;;;0.00;0.00;;;;;34.22;18.91;100772.06;5028304;28;47271;-84
2022/06/01 07:49:41;;;;;;;;;0.00;0.00;;;;;34.50;19.37;100765.03;5020199;28;45477;-80
2022/06/01 07:52:09;;;;;;;;;0.00;0.00;;;;;34.56;18.76;100776.31;5021342;28;45562;-79
2022/06/01 07:54:39;;;;;;;;;0.75;0.75;;;;;34.58;18.26;100771.50;5020008;28;45526;-76
2022/06/01 07:57:05;;;;;;;;;2.25;1.00;;;;;34.44;18.83;100775.91;5015914;28;45515;-76
2022/06/01 07:59:32;;;;;;;;;1.00;1.00;;;;;34.50;18.42;100770.53;5024420;28;45578;-76
2022/06/01 08:01:57;;;;;;;;;0.00;0.00;;;;;34.56;18.73;100773.56;5013471;28;45419;-75
2022/06/01 08:04:24;;;;;;;;;2.00;2.00;;;;;34.59;19.38;100764.97;5017333;28;45379;-80
2022/06/01 08:06:49;;;;;;;;;2.00;2.00;;;;;34.62;18.10;100767.34;5017746;28;45537;-79
2022/06/01 08:09:14;;;;;;;;;1.00;1.00;;;;;34.34;19.59;100770.63;5016811;28;45405;-76
2022/06/01 08:14:24;;;;;;;;;2.00;1.50;;;;;34.74;19.13;100757.66;5019953;28;45549;-79
2022/06/01 08:16:49;;;;;;;;;3.50;2.25;;;;;34.69;17.99;100766.41;5011471;28;46431;-75
2022/06/01 08:19:15;;;;;;;;;2.25;1.75;;;;;34.37;18.24;100759.31;5020326;28;45978;-80
2022/06/01 08:21:41;;;;;;;;;0.75;0.75;;;;;34.54;19.14;100771.00;5027078;28;45515;-79
2022/06/01 08:24:07;;;;;;;;;2.75;1.25;;;;;34.34;18.49;100762.41;5017627;28;45530;-79
2022/06/01 08:26:34;;;;;;;;;1.00;1.00;;;;;34.24;18.84;100764.50;5020136;28;47053;-79
2022/06/01 08:29:00;;;;;;;;;2.75;1.25;;;;;34.17;18.69;100764.38;5020872;28;45454;-76
2022/06/01 08:31:27;;;;;;;;;1.00;1.00;;;;;34.21;18.99;100748.41;5009185;28;45919;-76
2022/06/01 08:34:01;;;;;;;;;2.25;2.25;;;;;34.25;19.47;100763.50;5015969;28;45502;-78
2022/06/01 08:36:27;;;;;;;;;1.00;1.00;;;;;34.29;18.67;100760.22;5014652;28;45714;-79
2022/06/01 08:38:52;;;;;;;;;0.75;0.00;;;;;34.43;18.57;100769.53;5019666;28;45345;-79
2022/06/01 08:41:21;;;;;;;;;1.25;1.00;;;;;34.57;19.02;100767.03;5020495;28;45780;-79
2022/06/01 08:43:57;;;;;;;;;2.50;1.75;;;;;34.60;18.18;100769.41;5015271;28;45617;-76
2022/06/01 08:46:24;;;;;;;;;0.50;0.50;;;;;34.68;19.73;100756.50;5014031;28;46161;-77
2022/06/01 08:49:00;;;;;;;;;1.00;1.00;;;;;34.61;18.89;100766.50;5016281;28;45407;-78
2022/06/01 08:51:28;;;;;;;;;1.25;1.25;;;;;34.32;19.17;100764.50;5013996;28;45407;-76
2022/06/01 08:53:56;;;;;;;;;1.00;1.00;;;;;34.42;19.38;100767.84;5015342;28;45507;-77
2022/06/01 08:56:49;;;;;;;;;1.75;1.75;;;;;34.43;19.08;100764.06;5019250;28;46144;-77
2022/06/01 08:59:33;;;;;;;;;1.50;1.50;;;;;34.53;18.58;100767.41;5003861;28;45568;-77
2022/06/01 09:02:22;;;;;;;;;2.25;1.50;;;;;34.61;18.77;100766.50;5013584;28;45542;-75
2022/06/01 09:04:57;;;;;;;;;3.50;2.00;;;;;34.84;19.48;100771.97;5019753;28;45585;-80
2022/06/01 09:07:29;;;;;;;;;3.00;2.50;;;;;34.49;18.99;100768.81;5016902;28;46384;-79
2022/06/01 09:10:31;;;;;;;;;0.00;0.00;;;;;34.05;20.03;100774.91;5021297;28;45419;-79
2022/06/01 09:13:14;;;;;;;;;2.00;2.00;;;;;33.82;19.25;100772.13;5016759;28;45404;-80
2022/06/01 09:15:54;;;;;;;;;1.00;0.00;;;;;33.55;19.71;100776.97;5024025;28;45457;-78
2022/06/01 09:18:24;;;;;;;;;0.00;0.00;;;;;33.78;19.16;100770.75;5026606;28;45526;-76
2022/06/01 09:23:33;;;;;;;;;1.00;1.00;;;;;34.06;18.63;100771.13;5017923;28;45355;-80
2022/06/01 09:25:59;;;;;;;;;0.75;0.00;;;;;34.26;18.71;100767.97;5014368;28;45442;-80
2022/06/01 09:28:29;;;;;;;;;0.25;0.25;;;;;34.41;19.10;100765.28;5017982;28;46316;-78
2022/06/01 09:30:57;;;;;;;;;1.00;1.00;;;;;34.44;18.77;100771.25;5030654;28;45502;-80
2022/06/01 09:33:29;;;;;;;;;1.50;1.50;;;;;34.43;18.90;100771.44;5017392;28;45458;-79
2022/06/01 09:36:07;;;;;;;;;0.25;0.25;;;;;34.61;18.48;100771.13;5012818;28;45474;-79
2022/06/01 09:39:03;;;;;;;;;0.75;0.75;;;;;34.73;18.32;100766.06;5031238;28;45596;-80
2022/06/01 09:41:36;;;;;;;;;0.50;0.50;;;;;34.72;18.18;100778.06;4991545;28;45588;-81
2022/06/01 09:44:08;;;;;;;;;1.00;1.00;;;;;34.67;17.54;100778.63;5028862;28;45349;-79
2022/06/01 09:46:40;;;;;;;;;1.00;0.25;;;;;34.52;17.73;100779.41;5028022;28;45551;-79
2022/06/01 09:49:19;;;;;;;;;0.50;0.50;;;;;34.61;18.03;100771.13;5026177;28;46626;-81
2022/06/01 09:51:48;;;;;;;;;2.00;1.00;;;;;34.59;18.41;100770.44;5038426;28;45497;-80
2022/06/01 09:54:25;;;;;;;;;5.50;5.50;;;;;34.81;18.38;100771.50;5031185;28;45428;-80
2022/06/01 09:56:51;;;;;;;;;0.00;0.00;;;;;34.88;18.09;100767.84;5027008;28;45372;-80
2022/06/01 10:08:12;;;;;;;;;0.75;0.75;;;;;34.81;18.97;100766.84;5020558;28;45579;-80
2022/06/01 10:10:39;;;;;;;;;1.00;1.00;;;;;34.27;18.78;100737.63;5024025;28;45568;-80
2022/06/01 10:13:06;;;;;;;;;2.25;2.00;;;;;33.65;19.32;100732.97;5024033;28;45521;-81
2022/06/01 10:15:40;;;;;;;;;2.00;2.00;;;;;33.73;19.44;100756.75;5022057;28;45517;-79
2022/06/01 10:18:22;;;;;;;;;1.00;1.00;;;;;33.04;19.35;100744.41;5017502;28;45477;-80
2022/06/01 10:20:55;;;;;;;;;1.25;1.00;;;;;32.86;20.16;100761.03;5021732;28;46208;-81
2022/06/01 10:23:47;;;;;;;;;2.00;2.00;;;;;32.99;19.26;100760.47;5018061;28;45464;-81
2022/06/01 10:26:21;;;;;;;;;2.75;1.75;;;;;32.70;20.12;100761.03;5019334;28;45467;-80
2022/06/01 10:28:52;;;;;;;;;2.00;2.00;;;;;32.46;20.44;100764.56;5019665;28;45465;-80
2022/06/01 10:31:45;;;;;;;;;2.00;2.00;;;;;32.55;20.35;100764.44;5017634;28;45438;-81
2022/06/01 10:34:17;;;;;;;;;0.50;0.50;;;;;32.69;20.74;100754.72;5010268;28;45490;-80
2022/06/01 10:36:54;;;;;;;;;2.50;2.00;;;;;32.01;20.40;100759.34;5008453;28;45648;-79
2022/06/01 10:39:25;;;;;;;;;1.00;1.00;;;;;31.81;20.30;100766.97;5012592;28;45587;-80
2022/06/01 10:42:11;;;;;;;;;2.00;2.00;;;;;32.28;19.94;100761.97;5011989;28;45687;-80
2022/06/01 10:44:47;;;;;;;;;0.75;0.75;;;;;32.57;20.86;100759.63;5017292;28;45380;-78
2022/06/01 10:47:18;;;;;;;;;1.25;1.25;;;;;33.02;19.50;100760.13;5025895;28;45568;-79
2022/06/01 10:50:00;;;;;;;;;1.00;1.00;;;;;33.27;19.88;100762.88;5028517;28;45504;-80
2022/06/01 10:52:32;;;;;;;;;2.00;2.00;;;;;33.58;20.39;100751.13;5016142;28;46184;-81
2022/06/01 10:55:23;;;;;;;;;2.00;2.00;;;;;33.80;19.71;100750.38;5025860;28;45505;-80
2022/06/01 10:57:49;;;;;;;;;2.00;2.00;;;;;33.82;18.54;100740.09;5018918;28;45478;-80
2022/06/01 11:00:20;;;;;;;;;1.00;1.00;;;;;33.82;18.95;100740.09;5025305;28;45515;-80
2022/06/01 11:03:30;;;;;;;;;2.00;2.00;;;;;34.00;18.57;100738.97;5014516;28;45453;-81
2022/06/01 11:06:14;;;;;;;;;0.00;0.00;;;;;33.87;19.05;100725.00;5017392;28;45450;-81
2022/06/01 11:08:54;;;;;;;;;0.75;0.75;;;;;33.88;18.83;100716.59;5019198;28;45502;-82
2022/06/01 11:11:35;;;;;;;;;3.00;1.00;;;;;33.93;19.11;100735.22;5013106;28;45471;-80
2022/06/01 11:14:22;;;;;;;;;1.00;1.00;;;;;33.32;19.45;100733.06;5031689;28;45396;-82
2022/06/01 11:17:01;;;;;;;;;0.50;0.50;;;;;32.56;19.84;100727.00;5037732;28;45482;-81
2022/06/01 11:19:33;;;;;;;;;1.25;1.25;;;;;32.12;20.15;100724.56;5024036;28;45501;-82
2022/06/01 11:22:35;;;;;;;;;2.00;2.00;;;;;32.28;20.98;100730.06;5019198;28;45547;-81
2022/06/01 11:25:24;;;;;;;;;1.50;1.50;;;;;32.54;19.43;100723.53;5018575;28;45510;-80
2022/06/01 11:28:38;;;;;;;;;1.50;1.50;;;;;32.78;19.99;100719.13;5010730;28;45564;-80
2022/06/01 11:31:25;;;;;;;;;0.25;0.25;;;;;32.80;20.10;100717.06;4982827;28;45528;-80
2022/06/01 11:34:00;;;;;;;;;1.75;1.00;;;;;32.76;19.79;100722.03;4974891;28;45585;-78
2022/06/01 11:36:37;;;;;;;;;1.25;1.25;;;;;32.35;20.36;100720.13;4966665;28;45709;-81
2022/06/01 11:39:17;;;;;;;;;0.75;0.75;;;;;32.37;20.30;100723.56;4958803;28;45437;-78
2022/06/01 11:41:56;;;;;;;;;2.00;2.00;;;;;32.62;20.02;100720.84;4988005;28;45727;-81
2022/06/01 11:44:35;;;;;;;;;1.00;1.00;;;;;32.55;20.21;100714.31;4986105;28;45536;-76
2022/06/01 11:47:08;;;;;;;;;3.00;2.00;;;;;32.33;20.33;100718.63;4973688;28;45432;-77
2022/06/01 11:49:44;;;;;;;;;1.00;1.00;;;;;32.30;20.08;100717.06;4976154;28;45524;-80
2022/06/01 11:52:15;;;;;;;;;3.00;2.00;;;;;32.31;20.06;100718.78;4972744;28;45411;-79
2022/06/01 11:54:40;;;;;;;;;2.50;0.50;;;;;32.19;20.42;100709.19;4977267;28;45471;-79
2022/06/01 11:57:24;;;;;;;;;2.25;1.50;;;;;32.05;19.87;100706.06;4981981;28;45591;-80
2022/06/01 12:00:04;;;;;;;;;1.00;1.00;;;;;31.59;20.07;100691.94;4980629;28;45469;-80
2022/06/01 12:02:50;;;;;;;;;1.00;1.00;;;;;31.42;20.32;100712.00;4971795;28;45730;-80
2022/06/01 12:05:28;;;;;;;;;1.75;1.75;;;;;31.29;21.02;100712.44;4970200;28;45487;-79
2022/06/01 12:07:56;;;;;;;;;1.00;1.00;;;;;30.95;20.95;100697.72;5000409;28;46809;-78